sensor_id;sensor_type;location;lat;lon;timestamp;P1;durP1;ratioP1;P2;durP2;ratioP2
35394;SDS011;21500;45.308;9.488;2023-06-10T00:00:42;14.57;;;12.38;;
35394;SDS011;21500;45.308;9.488;2023-06-10T00:03:09;16.35;;;11.80;;
35394;SDS011;21500;45.308;9.488;2023-06-10T00:05:35;16.75;;;12.27;;
35394;SDS011;21500;45.308;9.488;2023-06-10T00:08:04;12.60;;;10.93;;
35394;SDS011;21500;45.308;9.488;2023-06-10T00:10:34;13.83;;;11.00;;
35394;SDS011;21500;45.308;9.488;2023-06-10T00:13:01;12.77;;;11.45;;
35394;SDS011;21500;45.308;9.488;2023-06-10T00:15:29;11.63;;;10.43;;
35394;SDS011;21500;45.308;9.488;2023-06-10T00:17:55;14.23;;;11.10;;
35394;SDS011;21500;45.308;9.488;2023-06-10T00:20:21;13.25;;;11.70;;
35394;SDS011;21500;45.308;9.488;2023-06-10T00:22:51;13.50;;;10.73;;
35394;SDS011;21500;45.308;9.488;2023-06-10T00:25:17;11.77;;;10.43;;
35394;SDS011;21500;45.308;9.488;2023-06-10T00:27:43;12.60;;;11.30;;
35394;SDS011;21500;45.308;9.488;2023-06-10T00:30:10;13.07;;;11.10;;
35394;SDS011;21500;45.308;9.488;2023-06-10T00:32:36;13.07;;;11.30;;
35394;SDS011;21500;45.308;9.488;2023-06-10T00:35:03;11.52;;;10.32;;
35394;SDS011;21500;45.308;9.488;2023-06-10T00:37:30;13.45;;;10.57;;
35394;SDS011;21500;45.308;9.488;2023-06-10T00:39:57;11.75;;;10.55;;
35394;SDS011;21500;45.308;9.488;2023-06-10T00:42:25;12.13;;;10.85;;
35394;SDS011;21500;45.308;9.488;2023-06-10T00:44:51;13.30;;;10.75;;
35394;SDS011;21500;45.308;9.488;2023-06-10T00:47:17;10.90;;;9.80;;
35394;SDS011;21500;45.308;9.488;2023-06-10T00:49:43;13.63;;;11.40;;
35394;SDS011;21500;45.308;9.488;2023-06-10T00:52:10;12.27;;;10.45;;
35394;SDS011;21500;45.308;9.488;2023-06-10T00:54:36;12.20;;;10.45;;
35394;SDS011;21500;45.308;9.488;2023-06-10T00:57:03;12.35;;;10.43;;
35394;SDS011;21500;45.308;9.488;2023-06-10T00:59:30;12.75;;;10.73;;
35394;SDS011;21500;45.308;9.488;2023-06-10T01:01:57;11.68;;;10.57;;
35394;SDS011;21500;45.308;9.488;2023-06-10T01:04:23;12.77;;;11.60;;
35394;SDS011;21500;45.308;9.488;2023-06-10T01:06:54;15.95;;;12.20;;
35394;SDS011;21500;45.308;9.488;2023-06-10T01:09:38;11.30;;;10.07;;
35394;SDS011;21500;45.308;9.488;2023-06-10T01:12:38;11.55;;;10.23;;
35394;SDS011;21500;45.308;9.488;2023-06-10T01:15:19;12.25;;;9.57;;
35394;SDS011;21500;45.308;9.488;2023-06-10T01:20:42;9.35;;;6.75;;
35394;SDS011;21500;45.308;9.488;2023-06-10T01:23:11;7.78;;;6.70;;
35394;SDS011;21500;45.308;9.488;2023-06-10T01:25:37;7.82;;;7.03;;
35394;SDS011;21500;45.308;9.488;2023-06-10T01:30:59;9.95;;;6.70;;
35394;SDS011;21500;45.308;9.488;2023-06-10T01:33:52;9.27;;;5.32;;
35394;SDS011;21500;45.308;9.488;2023-06-10T01:36:19;5.47;;;4.80;;
35394;SDS011;21500;45.308;9.488;2023-06-10T01:38:48;6.03;;;4.82;;
35394;SDS011;21500;45.308;9.488;2023-06-10T01:41:17;8.27;;;4.57;;
35394;SDS011;21500;45.308;9.488;2023-06-10T01:43:43;6.93;;;3.78;;
35394;SDS011;21500;45.308;9.488;2023-06-10T01:46:12;7.88;;;4.68;;
35394;SDS011;21500;45.308;9.488;2023-06-10T01:48:39;7.32;;;5.07;;
35394;SDS011;21500;45.308;9.488;2023-06-10T01:51:06;9.50;;;4.93;;
35394;SDS011;21500;45.308;9.488;2023-06-10T01:53:32;9.52;;;4.72;;
35394;SDS011;21500;45.308;9.488;2023-06-10T01:55:57;9.63;;;5.03;;
35394;SDS011;21500;45.308;9.488;2023-06-10T01:58:23;7.97;;;5.20;;
35394;SDS011;21500;45.308;9.488;2023-06-10T02:00:50;10.57;;;6.20;;
35394;SDS011;21500;45.308;9.488;2023-06-10T02:03:15;8.30;;;6.00;;
35394;SDS011;21500;45.308;9.488;2023-06-10T02:05:41;7.05;;;5.97;;
35394;SDS011;21500;45.308;9.488;2023-06-10T02:08:07;7.25;;;6.55;;
35394;SDS011;21500;45.308;9.488;2023-06-10T02:10:33;10.18;;;6.88;;
35394;SDS011;21500;45.308;9.488;2023-06-10T02:12:59;11.10;;;7.03;;
35394;SDS011;21500;45.308;9.488;2023-06-10T02:15:25;9.35;;;6.75;;
35394;SDS011;21500;45.308;9.488;2023-06-10T02:17:51;12.05;;;7.18;;
35394;SDS011;21500;45.308;9.488;2023-06-10T02:20:17;8.32;;;6.55;;
35394;SDS011;21500;45.308;9.488;2023-06-10T02:22:43;9.80;;;7.25;;
35394;SDS011;21500;45.308;9.488;2023-06-10T02:25:09;8.65;;;6.68;;
35394;SDS011;21500;45.308;9.488;2023-06-10T02:27:36;9.07;;;7.55;;
35394;SDS011;21500;45.308;9.488;2023-06-10T02:30:02;11.63;;;8.23;;
35394;SDS011;21500;45.308;9.488;2023-06-10T02:32:31;9.48;;;7.28;;
35394;SDS011;21500;45.308;9.488;2023-06-10T02:34:57;8.10;;;7.25;;
35394;SDS011;21500;45.308;9.488;2023-06-10T02:37:24;9.00;;;6.53;;
35394;SDS011;21500;45.308;9.488;2023-06-10T02:39:50;10.07;;;7.82;;
35394;SDS011;21500;45.308;9.488;2023-06-10T02:42:16;9.00;;;7.18;;
35394;SDS011;21500;45.308;9.488;2023-06-10T02:44:42;8.25;;;6.85;;
35394;SDS011;21500;45.308;9.488;2023-06-10T02:47:13;26.30;;;7.80;;
35394;SDS011;21500;45.308;9.488;2023-06-10T02:49:39;20.70;;;7.25;;
35394;SDS011;21500;45.308;9.488;2023-06-10T02:52:05;21.88;;;7.40;;
35394;SDS011;21500;45.308;9.488;2023-06-10T02:54:33;20.60;;;6.95;;
35394;SDS011;21500;45.308;9.488;2023-06-10T02:56:59;30.17;;;8.30;;
35394;SDS011;21500;45.308;9.488;2023-06-10T02:59:27;21.00;;;8.50;;
35394;SDS011;21500;45.308;9.488;2023-06-10T03:01:54;25.90;;;7.13;;
35394;SDS011;21500;45.308;9.488;2023-06-10T03:04:21;18.42;;;6.85;;
35394;SDS011;21500;45.308;9.488;2023-06-10T03:06:57;16.50;;;7.28;;
35394;SDS011;21500;45.308;9.488;2023-06-10T03:09:29;13.00;;;5.28;;
35394;SDS011;21500;45.308;9.488;2023-06-10T03:11:56;9.50;;;5.28;;
35394;SDS011;21500;45.308;9.488;2023-06-10T03:14:22;9.85;;;5.55;;
35394;SDS011;21500;45.308;9.488;2023-06-10T03:16:50;9.40;;;5.32;;
35394;SDS011;21500;45.308;9.488;2023-06-10T03:19:16;9.10;;;4.70;;
35394;SDS011;21500;45.308;9.488;2023-06-10T03:21:49;8.23;;;5.00;;
35394;SDS011;21500;45.308;9.488;2023-06-10T03:24:19;8.38;;;6.13;;
35394;SDS011;21500;45.308;9.488;2023-06-10T03:26:45;9.48;;;5.47;;
35394;SDS011;21500;45.308;9.488;2023-06-10T03:29:11;10.30;;;5.40;;
35394;SDS011;21500;45.308;9.488;2023-06-10T03:31:37;5.30;;;4.22;;
35394;SDS011;21500;45.308;9.488;2023-06-10T03:34:05;6.43;;;4.78;;
35394;SDS011;21500;45.308;9.488;2023-06-10T03:36:32;7.43;;;5.25;;
35394;SDS011;21500;45.308;9.488;2023-06-10T03:38:58;4.93;;;4.45;;
35394;SDS011;21500;45.308;9.488;2023-06-10T03:41:24;5.82;;;5.22;;
35394;SDS011;21500;45.308;9.488;2023-06-10T03:43:50;6.78;;;4.57;;
35394;SDS011;21500;45.308;9.488;2023-06-10T03:46:17;8.63;;;5.60;;
35394;SDS011;21500;45.308;9.488;2023-06-10T03:48:43;8.27;;;5.07;;
35394;SDS011;21500;45.308;9.488;2023-06-10T03:51:09;7.82;;;5.57;;
35394;SDS011;21500;45.308;9.488;2023-06-10T03:53:36;11.50;;;5.60;;
35394;SDS011;21500;45.308;9.488;2023-06-10T03:56:01;7.57;;;4.20;;
35394;SDS011;21500;45.308;9.488;2023-06-10T03:58:29;11.02;;;4.70;;
35394;SDS011;21500;45.308;9.488;2023-06-10T04:00:55;6.18;;;4.65;;
35394;SDS011;21500;45.308;9.488;2023-06-10T04:03:29;8.05;;;5.07;;
35394;SDS011;21500;45.308;9.488;2023-06-10T04:05:56;5.38;;;4.75;;
35394;SDS011;21500;45.308;9.488;2023-06-10T04:08:25;6.07;;;4.70;;
35394;SDS011;21500;45.308;9.488;2023-06-10T04:10:51;9.07;;;5.43;;
35394;SDS011;21500;45.308;9.488;2023-06-10T04:13:16;6.03;;;5.32;;
35394;SDS011;21500;45.308;9.488;2023-06-10T04:15:51;5.95;;;4.82;;
35394;SDS011;21500;45.308;9.488;2023-06-10T04:18:18;8.68;;;4.72;;
35394;SDS011;21500;45.308;9.488;2023-06-10T04:20:45;7.10;;;4.53;;
35394;SDS011;21500;45.308;9.488;2023-06-10T04:23:11;4.97;;;4.38;;
35394;SDS011;21500;45.308;9.488;2023-06-10T04:25:39;8.77;;;5.47;;
35394;SDS011;21500;45.308;9.488;2023-06-10T04:28:06;7.28;;;5.00;;
35394;SDS011;21500;45.308;9.488;2023-06-10T04:30:32;8.68;;;5.30;;
35394;SDS011;21500;45.308;9.488;2023-06-10T04:32:59;6.32;;;4.78;;
35394;SDS011;21500;45.308;9.488;2023-06-10T04:35:25;10.70;;;5.15;;
35394;SDS011;21500;45.308;9.488;2023-06-10T04:37:53;7.20;;;4.72;;
35394;SDS011;21500;45.308;9.488;2023-06-10T04:40:22;6.75;;;5.00;;
35394;SDS011;21500;45.308;9.488;2023-06-10T04:42:48;7.85;;;6.13;;
35394;SDS011;21500;45.308;9.488;2023-06-10T04:45:14;5.75;;;4.97;;
35394;SDS011;21500;45.308;9.488;2023-06-10T04:47:40;8.65;;;5.75;;
35394;SDS011;21500;45.308;9.488;2023-06-10T04:50:08;6.28;;;5.68;;
35394;SDS011;21500;45.308;9.488;2023-06-10T04:52:34;9.23;;;6.05;;
35394;SDS011;21500;45.308;9.488;2023-06-10T04:55:00;9.15;;;5.72;;
35394;SDS011;21500;45.308;9.488;2023-06-10T04:57:26;7.63;;;6.20;;
35394;SDS011;21500;45.308;9.488;2023-06-10T04:59:52;10.50;;;6.25;;
35394;SDS011;21500;45.308;9.488;2023-06-10T05:02:18;7.47;;;6.07;;
35394;SDS011;21500;45.308;9.488;2023-06-10T05:04:44;10.77;;;7.75;;
35394;SDS011;21500;45.308;9.488;2023-06-10T05:07:11;6.85;;;6.10;;
35394;SDS011;21500;45.308;9.488;2023-06-10T05:09:37;8.77;;;6.90;;
35394;SDS011;21500;45.308;9.488;2023-06-10T05:12:03;12.43;;;8.68;;
35394;SDS011;21500;45.308;9.488;2023-06-10T05:14:30;8.48;;;7.05;;
35394;SDS011;21500;45.308;9.488;2023-06-10T05:16:56;8.75;;;6.90;;
35394;SDS011;21500;45.308;9.488;2023-06-10T05:19:22;8.30;;;6.43;;
35394;SDS011;21500;45.308;9.488;2023-06-10T05:21:48;11.82;;;6.97;;
35394;SDS011;21500;45.308;9.488;2023-06-10T05:24:14;12.98;;;7.68;;
35394;SDS011;21500;45.308;9.488;2023-06-10T05:26:40;8.70;;;7.45;;
35394;SDS011;21500;45.308;9.488;2023-06-10T05:29:06;10.35;;;7.88;;
35394;SDS011;21500;45.308;9.488;2023-06-10T05:31:34;8.18;;;6.40;;
35394;SDS011;21500;45.308;9.488;2023-06-10T05:34:00;11.35;;;7.30;;
35394;SDS011;21500;45.308;9.488;2023-06-10T05:36:25;8.63;;;7.70;;
35394;SDS011;21500;45.308;9.488;2023-06-10T05:38:52;7.35;;;6.50;;
35394;SDS011;21500;45.308;9.488;2023-06-10T05:41:18;10.02;;;6.43;;
35394;SDS011;21500;45.308;9.488;2023-06-10T05:43:43;10.63;;;7.30;;
35394;SDS011;21500;45.308;9.488;2023-06-10T05:46:09;8.57;;;6.75;;
35394;SDS011;21500;45.308;9.488;2023-06-10T05:48:35;10.63;;;6.00;;
35394;SDS011;21500;45.308;9.488;2023-06-10T05:51:01;14.02;;;7.22;;
35394;SDS011;21500;45.308;9.488;2023-06-10T05:53:27;10.43;;;6.85;;
35394;SDS011;21500;45.308;9.488;2023-06-10T05:55:53;11.23;;;7.53;;
35394;SDS011;21500;45.308;9.488;2023-06-10T05:58:22;9.15;;;7.18;;
35394;SDS011;21500;45.308;9.488;2023-06-10T06:00:48;12.20;;;7.80;;
35394;SDS011;21500;45.308;9.488;2023-06-10T06:03:14;9.98;;;6.65;;
35394;SDS011;21500;45.308;9.488;2023-06-10T06:05:41;14.15;;;7.68;;
35394;SDS011;21500;45.308;9.488;2023-06-10T06:08:07;10.27;;;7.18;;
35394;SDS011;21500;45.308;9.488;2023-06-10T06:10:33;10.02;;;7.20;;
35394;SDS011;21500;45.308;9.488;2023-06-10T06:13:01;10.45;;;6.97;;
35394;SDS011;21500;45.308;9.488;2023-06-10T06:15:27;9.65;;;7.00;;
35394;SDS011;21500;45.308;9.488;2023-06-10T06:17:53;9.73;;;6.90;;
35394;SDS011;21500;45.308;9.488;2023-06-10T06:20:19;9.80;;;6.85;;
35394;SDS011;21500;45.308;9.488;2023-06-10T06:22:46;10.30;;;7.78;;
35394;SDS011;21500;45.308;9.488;2023-06-10T06:25:12;8.65;;;6.88;;
35394;SDS011;21500;45.308;9.488;2023-06-10T06:27:39;8.20;;;6.75;;
35394;SDS011;21500;45.308;9.488;2023-06-10T06:30:05;8.52;;;7.18;;
35394;SDS011;21500;45.308;9.488;2023-06-10T06:32:32;11.32;;;7.45;;
35394;SDS011;21500;45.308;9.488;2023-06-10T06:34:58;8.32;;;7.50;;
35394;SDS011;21500;45.308;9.488;2023-06-10T06:37:24;8.60;;;7.35;;
35394;SDS011;21500;45.308;9.488;2023-06-10T06:40:00;8.70;;;6.85;;
35394;SDS011;21500;45.308;9.488;2023-06-10T06:42:26;8.73;;;7.72;;
35394;SDS011;21500;45.308;9.488;2023-06-10T06:45:09;7.68;;;6.47;;
35394;SDS011;21500;45.308;9.488;2023-06-10T06:47:37;8.65;;;6.60;;
35394;SDS011;21500;45.308;9.488;2023-06-10T06:50:03;8.93;;;6.82;;
35394;SDS011;21500;45.308;9.488;2023-06-10T06:52:29;7.72;;;6.60;;
35394;SDS011;21500;45.308;9.488;2023-06-10T06:54:54;14.57;;;8.23;;
35394;SDS011;21500;45.308;9.488;2023-06-10T06:57:20;8.38;;;6.38;;
35394;SDS011;21500;45.308;9.488;2023-06-10T06:59:46;11.90;;;6.55;;
35394;SDS011;21500;45.308;9.488;2023-06-10T07:02:21;8.00;;;7.07;;
35394;SDS011;21500;45.308;9.488;2023-06-10T07:04:47;9.18;;;8.07;;
35394;SDS011;21500;45.308;9.488;2023-06-10T07:07:14;9.27;;;6.50;;
35394;SDS011;21500;45.308;9.488;2023-06-10T07:09:41;13.25;;;7.82;;
35394;SDS011;21500;45.308;9.488;2023-06-10T07:12:07;8.52;;;7.32;;
35394;SDS011;21500;45.308;9.488;2023-06-10T07:14:34;7.03;;;5.80;;
35394;SDS011;21500;45.308;9.488;2023-06-10T07:17:00;8.65;;;6.80;;
35394;SDS011;21500;45.308;9.488;2023-06-10T07:19:26;10.80;;;6.80;;
35394;SDS011;21500;45.308;9.488;2023-06-10T07:21:51;8.27;;;6.55;;
35394;SDS011;21500;45.308;9.488;2023-06-10T07:24:17;6.53;;;5.85;;
35394;SDS011;21500;45.308;9.488;2023-06-10T07:26:46;8.35;;;6.22;;
35394;SDS011;21500;45.308;9.488;2023-06-10T07:29:11;18.25;;;6.65;;
35394;SDS011;21500;45.308;9.488;2023-06-10T07:31:38;7.47;;;5.72;;
35394;SDS011;21500;45.308;9.488;2023-06-10T07:34:03;8.27;;;6.20;;
35394;SDS011;21500;45.308;9.488;2023-06-10T07:36:32;6.82;;;5.70;;
35394;SDS011;21500;45.308;9.488;2023-06-10T07:38:58;7.35;;;5.88;;
35394;SDS011;21500;45.308;9.488;2023-06-10T07:41:24;6.10;;;5.50;;
35394;SDS011;21500;45.308;9.488;2023-06-10T07:43:50;6.43;;;5.68;;
35394;SDS011;21500;45.308;9.488;2023-06-10T07:46:22;5.57;;;4.75;;
35394;SDS011;21500;45.308;9.488;2023-06-10T07:48:49;9.25;;;4.93;;
35394;SDS011;21500;45.308;9.488;2023-06-10T07:51:16;9.15;;;5.13;;
35394;SDS011;21500;45.308;9.488;2023-06-10T07:53:42;8.05;;;5.32;;
35394;SDS011;21500;45.308;9.488;2023-06-10T07:56:08;5.00;;;4.38;;
35394;SDS011;21500;45.308;9.488;2023-06-10T07:58:34;7.38;;;5.05;;
35394;SDS011;21500;45.308;9.488;2023-06-10T08:01:00;5.15;;;4.65;;
35394;SDS011;21500;45.308;9.488;2023-06-10T08:03:25;8.30;;;5.43;;
35394;SDS011;21500;45.308;9.488;2023-06-10T08:05:51;9.77;;;5.00;;
35394;SDS011;21500;45.308;9.488;2023-06-10T08:08:17;8.13;;;5.20;;
35394;SDS011;21500;45.308;9.488;2023-06-10T08:10:43;7.28;;;4.82;;
35394;SDS011;21500;45.308;9.488;2023-06-10T08:13:08;4.95;;;4.45;;
35394;SDS011;21500;45.308;9.488;2023-06-10T08:15:34;8.93;;;5.15;;
35394;SDS011;21500;45.308;9.488;2023-06-10T08:18:03;6.70;;;4.57;;
35394;SDS011;21500;45.308;9.488;2023-06-10T08:20:29;8.55;;;4.60;;
35394;SDS011;21500;45.308;9.488;2023-06-10T08:22:54;4.82;;;4.38;;
35394;SDS011;21500;45.308;9.488;2023-06-10T08:25:20;6.10;;;4.88;;
35394;SDS011;21500;45.308;9.488;2023-06-10T08:27:51;5.25;;;3.88;;
35394;SDS011;21500;45.308;9.488;2023-06-10T08:30:17;6.88;;;4.57;;
35394;SDS011;21500;45.308;9.488;2023-06-10T08:32:43;4.50;;;4.10;;
35394;SDS011;21500;45.308;9.488;2023-06-10T08:35:12;7.20;;;4.32;;
35394;SDS011;21500;45.308;9.488;2023-06-10T08:37:37;6.40;;;3.63;;
35394;SDS011;21500;45.308;9.488;2023-06-10T08:40:03;8.75;;;3.88;;
35394;SDS011;21500;45.308;9.488;2023-06-10T08:42:34;5.82;;;4.10;;
35394;SDS011;21500;45.308;9.488;2023-06-10T08:45:11;5.70;;;4.45;;
35394;SDS011;21500;45.308;9.488;2023-06-10T08:47:42;4.60;;;4.20;;
35394;SDS011;21500;45.308;9.488;2023-06-10T08:50:11;11.10;;;4.45;;
35394;SDS011;21500;45.308;9.488;2023-06-10T08:52:37;4.35;;;4.00;;
35394;SDS011;21500;45.308;9.488;2023-06-10T08:55:17;6.28;;;4.45;;
35394;SDS011;21500;45.308;9.488;2023-06-10T08:57:47;6.88;;;4.30;;
35394;SDS011;21500;45.308;9.488;2023-06-10T09:00:15;5.47;;;4.90;;
35394;SDS011;21500;45.308;9.488;2023-06-10T09:02:42;6.13;;;5.20;;
35394;SDS011;21500;45.308;9.488;2023-06-10T09:05:09;8.52;;;5.38;;
35394;SDS011;21500;45.308;9.488;2023-06-10T09:07:35;8.00;;;6.38;;
35394;SDS011;21500;45.308;9.488;2023-06-10T09:10:02;8.80;;;6.07;;
35394;SDS011;21500;45.308;9.488;2023-06-10T09:12:31;8.48;;;6.93;;
35394;SDS011;21500;45.308;9.488;2023-06-10T09:15:01;6.78;;;6.15;;
35394;SDS011;21500;45.308;9.488;2023-06-10T09:17:27;8.60;;;6.40;;
35394;SDS011;21500;45.308;9.488;2023-06-10T09:19:53;7.05;;;6.30;;
35394;SDS011;21500;45.308;9.488;2023-06-10T09:22:22;6.97;;;5.82;;
35394;SDS011;21500;45.308;9.488;2023-06-10T09:24:48;9.60;;;6.07;;
35394;SDS011;21500;45.308;9.488;2023-06-10T09:27:14;8.90;;;5.70;;
35394;SDS011;21500;45.308;9.488;2023-06-10T09:29:51;6.57;;;5.80;;
35394;SDS011;21500;45.308;9.488;2023-06-10T09:32:19;8.10;;;5.85;;
35394;SDS011;21500;45.308;9.488;2023-06-10T09:34:46;6.93;;;5.72;;
35394;SDS011;21500;45.308;9.488;2023-06-10T09:37:12;8.18;;;5.68;;
35394;SDS011;21500;45.308;9.488;2023-06-10T09:39:44;10.80;;;6.97;;
35394;SDS011;21500;45.308;9.488;2023-06-10T09:42:25;8.27;;;5.10;;
35394;SDS011;21500;45.308;9.488;2023-06-10T09:44:51;6.95;;;5.25;;
35394;SDS011;21500;45.308;9.488;2023-06-10T09:47:20;5.40;;;4.78;;
35394;SDS011;21500;45.308;9.488;2023-06-10T09:49:50;6.38;;;4.57;;
35394;SDS011;21500;45.308;9.488;2023-06-10T09:52:27;7.20;;;5.97;;
35394;SDS011;21500;45.308;9.488;2023-06-10T09:54:58;7.85;;;4.70;;
35394;SDS011;21500;45.308;9.488;2023-06-10T09:57:26;5.35;;;4.82;;
35394;SDS011;21500;45.308;9.488;2023-06-10T09:59:57;6.03;;;4.20;;
35394;SDS011;21500;45.308;9.488;2023-06-10T10:02:23;5.38;;;4.07;;
35394;SDS011;21500;45.308;9.488;2023-06-10T10:04:49;5.30;;;3.85;;
35394;SDS011;21500;45.308;9.488;2023-06-10T10:07:15;5.40;;;2.53;;
35394;SDS011;21500;45.308;9.488;2023-06-10T10:09:41;5.03;;;3.47;;
35394;SDS011;21500;45.308;9.488;2023-06-10T10:12:12;3.60;;;2.70;;
35394;SDS011;21500;45.308;9.488;2023-06-10T10:14:39;5.53;;;2.83;;
35394;SDS011;21500;45.308;9.488;2023-06-10T10:17:11;4.43;;;2.65;;
35394;SDS011;21500;45.308;9.488;2023-06-10T10:19:48;5.85;;;2.67;;
35394;SDS011;21500;45.308;9.488;2023-06-10T10:22:20;4.55;;;2.92;;
35394;SDS011;21500;45.308;9.488;2023-06-10T10:24:51;4.38;;;2.40;;
35394;SDS011;21500;45.308;9.488;2023-06-10T10:27:21;3.47;;;1.92;;
35394;SDS011;21500;45.308;9.488;2023-06-10T10:30:04;4.45;;;2.30;;
35394;SDS011;21500;45.308;9.488;2023-06-10T10:35:34;3.55;;;2.40;;
35394;SDS011;21500;45.308;9.488;2023-06-10T10:38:01;5.13;;;2.70;;
35394;SDS011;21500;45.308;9.488;2023-06-10T10:40:28;6.43;;;2.38;;
35394;SDS011;21500;45.308;9.488;2023-06-10T10:42:55;2.13;;;1.90;;
35394;SDS011;21500;45.308;9.488;2023-06-10T10:45:23;4.60;;;2.55;;
35394;SDS011;21500;45.308;9.488;2023-06-10T10:47:52;7.05;;;2.80;;
35394;SDS011;21500;45.308;9.488;2023-06-10T10:52:51;2.30;;;2.10;;
35394;SDS011;21500;45.308;9.488;2023-06-10T10:55:27;5.35;;;2.17;;
35394;SDS011;21500;45.308;9.488;2023-06-10T11:00:27;5.72;;;2.03;;
35394;SDS011;21500;45.308;9.488;2023-06-10T11:03:06;3.38;;;2.20;;
35394;SDS011;21500;45.308;9.488;2023-06-10T11:05:45;2.55;;;1.88;;
35394;SDS011;21500;45.308;9.488;2023-06-10T11:08:15;3.55;;;2.20;;
35394;SDS011;21500;45.308;9.488;2023-06-10T11:11:20;4.30;;;2.17;;
35394;SDS011;21500;45.308;9.488;2023-06-10T11:16:57;3.78;;;2.38;;
35394;SDS011;21500;45.308;9.488;2023-06-10T11:19:36;5.00;;;2.53;;
35394;SDS011;21500;45.308;9.488;2023-06-10T11:22:07;4.22;;;2.45;;
35394;SDS011;21500;45.308;9.488;2023-06-10T11:24:34;5.45;;;3.22;;
35394;SDS011;21500;45.308;9.488;2023-06-10T11:27:19;6.28;;;2.85;;
35394;SDS011;21500;45.308;9.488;2023-06-10T11:32:32;8.55;;;5.03;;
35394;SDS011;21500;45.308;9.488;2023-06-10T11:34:59;5.28;;;3.15;;
35394;SDS011;21500;45.308;9.488;2023-06-10T11:37:28;3.78;;;2.78;;
35394;SDS011;21500;45.308;9.488;2023-06-10T11:39:54;4.28;;;2.75;;
35394;SDS011;21500;45.308;9.488;2023-06-10T11:42:24;3.78;;;2.42;;
35394;SDS011;21500;45.308;9.488;2023-06-10T11:44:51;3.28;;;2.17;;
35394;SDS011;21500;45.308;9.488;2023-06-10T11:47:19;3.30;;;2.63;;
35394;SDS011;21500;45.308;9.488;2023-06-10T11:49:55;7.07;;;3.33;;
35394;SDS011;21500;45.308;9.488;2023-06-10T11:52:28;5.10;;;2.75;;
35394;SDS011;21500;45.308;9.488;2023-06-10T11:54:58;5.47;;;2.70;;
35394;SDS011;21500;45.308;9.488;2023-06-10T11:57:24;4.72;;;2.40;;
35394;SDS011;21500;45.308;9.488;2023-06-10T11:59:50;3.38;;;2.85;;
35394;SDS011;21500;45.308;9.488;2023-06-10T12:02:16;2.28;;;1.70;;
35394;SDS011;21500;45.308;9.488;2023-06-10T12:04:42;4.45;;;3.20;;
35394;SDS011;21500;45.308;9.488;2023-06-10T12:07:08;3.22;;;2.25;;
35394;SDS011;21500;45.308;9.488;2023-06-10T12:09:41;4.60;;;2.13;;
35394;SDS011;21500;45.308;9.488;2023-06-10T12:12:08;2.80;;;2.08;;
35394;SDS011;21500;45.308;9.488;2023-06-10T12:14:50;5.03;;;3.30;;
35394;SDS011;21500;45.308;9.488;2023-06-10T12:17:22;4.82;;;2.40;;
35394;SDS011;21500;45.308;9.488;2023-06-10T12:19:57;3.20;;;2.33;;
35394;SDS011;21500;45.308;9.488;2023-06-10T12:22:24;2.78;;;2.25;;
35394;SDS011;21500;45.308;9.488;2023-06-10T12:25:12;3.90;;;2.33;;
35394;SDS011;21500;45.308;9.488;2023-06-10T12:27:37;3.22;;;2.30;;
35394;SDS011;21500;45.308;9.488;2023-06-10T12:30:18;5.03;;;1.42;;
35394;SDS011;21500;45.308;9.488;2023-06-10T12:32:45;4.90;;;1.95;;
35394;SDS011;21500;45.308;9.488;2023-06-10T12:35:19;2.80;;;1.98;;
35394;SDS011;21500;45.308;9.488;2023-06-10T12:40:42;3.70;;;2.30;;
35394;SDS011;21500;45.308;9.488;2023-06-10T12:43:10;5.03;;;2.50;;
35394;SDS011;21500;45.308;9.488;2023-06-10T12:45:40;5.07;;;2.63;;
35394;SDS011;21500;45.308;9.488;2023-06-10T12:48:19;4.15;;;2.92;;
35394;SDS011;21500;45.308;9.488;2023-06-10T12:50:55;6.93;;;2.72;;
35394;SDS011;21500;45.308;9.488;2023-06-10T12:53:26;3.55;;;2.38;;
35394;SDS011;21500;45.308;9.488;2023-06-10T12:55:52;5.22;;;2.95;;
35394;SDS011;21500;45.308;9.488;2023-06-10T12:58:19;7.68;;;2.70;;
35394;SDS011;21500;45.308;9.488;2023-06-10T13:00:46;3.47;;;2.70;;
35394;SDS011;21500;45.308;9.488;2023-06-10T13:03:17;6.18;;;2.78;;
35394;SDS011;21500;45.308;9.488;2023-06-10T13:05:54;4.03;;;2.40;;
35394;SDS011;21500;45.308;9.488;2023-06-10T13:11:28;4.45;;;2.17;;
35394;SDS011;21500;45.308;9.488;2023-06-10T13:13:58;3.25;;;1.95;;
35394;SDS011;21500;45.308;9.488;2023-06-10T13:51:44;4.35;;;2.33;;
35394;SDS011;21500;45.308;9.488;2023-06-10T13:54:09;2.50;;;1.60;;
35394;SDS011;21500;45.308;9.488;2023-06-10T13:56:42;4.05;;;1.95;;
35394;SDS011;21500;45.308;9.488;2023-06-10T13:59:08;3.50;;;1.65;;
35394;SDS011;21500;45.308;9.488;2023-06-10T14:01:36;5.45;;;1.92;;
35394;SDS011;21500;45.308;9.488;2023-06-10T14:04:06;7.13;;;2.10;;
35394;SDS011;21500;45.308;9.488;2023-06-10T14:06:32;2.50;;;1.58;;
35394;SDS011;21500;45.308;9.488;2023-06-10T14:09:00;11.52;;;2.13;;
35394;SDS011;21500;45.308;9.488;2023-06-10T14:11:26;4.03;;;1.60;;
35394;SDS011;21500;45.308;9.488;2023-06-10T14:13:51;6.00;;;1.88;;
35394;SDS011;21500;45.308;9.488;2023-06-10T14:16:17;1.98;;;1.40;;
35394;SDS011;21500;45.308;9.488;2023-06-10T14:18:44;4.00;;;1.67;;
35394;SDS011;21500;45.308;9.488;2023-06-10T14:21:11;4.13;;;2.05;;
35394;SDS011;21500;45.308;9.488;2023-06-10T14:23:37;5.35;;;2.53;;
35394;SDS011;21500;45.308;9.488;2023-06-10T14:26:02;4.80;;;2.40;;
35394;SDS011;21500;45.308;9.488;2023-06-10T14:28:30;2.45;;;1.42;;
35394;SDS011;21500;45.308;9.488;2023-06-10T14:30:56;3.60;;;2.38;;
35394;SDS011;21500;45.308;9.488;2023-06-10T14:33:25;4.75;;;2.25;;
35394;SDS011;21500;45.308;9.488;2023-06-10T14:35:50;2.63;;;2.28;;
35394;SDS011;21500;45.308;9.488;2023-06-10T14:38:16;2.35;;;1.85;;
35394;SDS011;21500;45.308;9.488;2023-06-10T14:40:42;2.58;;;1.67;;
35394;SDS011;21500;45.308;9.488;2023-06-10T14:43:08;3.08;;;2.00;;
35394;SDS011;21500;45.308;9.488;2023-06-10T14:45:38;3.83;;;1.90;;
35394;SDS011;21500;45.308;9.488;2023-06-10T14:48:05;1.95;;;1.50;;
35394;SDS011;21500;45.308;9.488;2023-06-10T14:50:32;3.88;;;2.25;;
35394;SDS011;21500;45.308;9.488;2023-06-10T14:53:01;1.70;;;1.45;;
35394;SDS011;21500;45.308;9.488;2023-06-10T14:55:28;2.72;;;1.77;;
35394;SDS011;21500;45.308;9.488;2023-06-10T14:57:54;2.67;;;1.63;;
35394;SDS011;21500;45.308;9.488;2023-06-10T15:00:22;2.88;;;1.48;;
35394;SDS011;21500;45.308;9.488;2023-06-10T15:02:49;3.00;;;1.65;;
35394;SDS011;21500;45.308;9.488;2023-06-10T15:05:16;4.13;;;2.00;;
35394;SDS011;21500;45.308;9.488;2023-06-10T15:07:58;5.32;;;2.15;;
35394;SDS011;21500;45.308;9.488;2023-06-10T15:10:25;3.22;;;1.63;;
35394;SDS011;21500;45.308;9.488;2023-06-10T15:13:05;2.00;;;1.25;;
35394;SDS011;21500;45.308;9.488;2023-06-10T15:15:31;3.38;;;1.70;;
35394;SDS011;21500;45.308;9.488;2023-06-10T15:17:57;6.07;;;1.73;;
35394;SDS011;21500;45.308;9.488;2023-06-10T15:20:23;3.78;;;1.77;;
35394;SDS011;21500;45.308;9.488;2023-06-10T15:22:49;5.03;;;2.30;;
35394;SDS011;21500;45.308;9.488;2023-06-10T15:25:15;3.75;;;2.00;;
35394;SDS011;21500;45.308;9.488;2023-06-10T15:27:41;6.65;;;3.00;;
35394;SDS011;21500;45.308;9.488;2023-06-10T15:30:07;4.00;;;1.75;;
35394;SDS011;21500;45.308;9.488;2023-06-10T15:32:33;4.80;;;1.70;;
35394;SDS011;21500;45.308;9.488;2023-06-10T15:34:58;6.47;;;1.90;;
35394;SDS011;21500;45.308;9.488;2023-06-10T15:37:24;4.97;;;1.88;;
35394;SDS011;21500;45.308;9.488;2023-06-10T15:39:50;4.75;;;2.22;;
35394;SDS011;21500;45.308;9.488;2023-06-10T15:42:16;3.00;;;1.73;;
35394;SDS011;21500;45.308;9.488;2023-06-10T15:44:42;5.28;;;2.28;;
35394;SDS011;21500;45.308;9.488;2023-06-10T15:47:08;2.58;;;1.63;;
35394;SDS011;21500;45.308;9.488;2023-06-10T15:49:34;4.18;;;1.80;;